Time;durP1;ratioP1;P1;durP2;ratioP2;P2;SDS_P1;SDS_P2;PMS_P1;PMS_P2;Temp;Humidity;BMP_temperature;BMP_pressure;BME280_temperature;BME280_humidity;BME280_pressure;Samples;Min_cycle;Max_cycle;Signal;HPM_P1;HPM_P2
2021/04/17 00:01:34;;;;;;;7.28;1.90;;;5.90;99.90;;;;;;5053735;28;20461;-73
2021/04/17 00:04:04;;;;;;;6.88;1.85;;;5.80;99.90;;;;;;5055201;28;20377;-72
2021/04/17 00:06:30;;;;;;;4.57;1.40;;;5.80;99.90;;;;;;5054675;28;20037;-73
2021/04/17 00:08:56;;;;;;;5.53;1.83;;;5.70;99.90;;;;;;5052998;28;20090;-72
2021/04/17 00:11:21;;;;;;;11.68;2.83;;;5.70;99.90;;;;;;5051426;28;20029;-73
2021/04/17 00:13:47;;;;;;;9.15;1.50;;;5.70;99.90;;;;;;5055579;28;20047;-73
2021/04/17 00:16:13;;;;;;;5.72;1.63;;;5.70;99.90;;;;;;5057497;28;20029;-73
2021/04/17 00:18:39;;;;;;;5.07;1.45;;;5.60;99.90;;;;;;5053860;28;20033;-73
2021/04/17 00:21:04;;;;;;;4.28;1.58;;;5.60;99.90;;;;;;5054972;28;20029;-73
2021/04/17 00:23:30;;;;;;;3.13;1.40;;;5.60;99.90;;;;;;5056543;28;20062;-73
2021/04/17 00:25:56;;;;;;;5.63;1.50;;;5.60;99.90;;;;;;5054972;28;20127;-73
2021/04/17 00:28:22;;;;;;;2.28;1.13;;;5.60;99.90;;;;;;5053940;28;20033;-73
2021/04/17 00:30:47;;;;;;;4.43;1.92;;;5.60;99.90;;;;;;5045643;28;20355;-73
2021/04/17 00:33:13;;;;;;;8.93;2.20;;;5.50;99.90;;;;;;5054575;28;20111;-73
2021/04/17 00:35:38;;;;;;;3.10;1.10;;;5.50;99.90;;;;;;5053928;28;20045;-73
2021/04/17 00:38:04;;;;;;;5.22;1.90;;;5.50;99.90;;;;;;5055075;28;20036;-73
2021/04/17 00:40:29;;;;;;;3.95;1.30;;;5.50;99.90;;;;;;5053693;28;20033;-73
2021/04/17 00:42:55;;;;;;;4.78;1.17;;;5.40;99.90;;;;;;5052195;28;20120;-73
2021/04/17 00:45:21;;;;;;;3.05;1.17;;;5.40;99.90;;;;;;5051118;28;20052;-73
2021/04/17 00:47:46;;;;;;;3.33;0.90;;;5.40;99.90;;;;;;5056468;28;20048;-72
2021/04/17 00:50:13;;;;;;;6.22;1.80;;;5.40;99.90;;;;;;5051357;28;20043;-72
2021/04/17 00:52:40;;;;;;;4.85;0.93;;;5.40;99.90;;;;;;5055033;28;20040;-73
2021/04/17 00:55:07;;;;;;;3.22;1.48;;;5.40;99.90;;;;;;5052755;28;20033;-73
2021/04/17 00:57:33;;;;;;;4.28;1.60;;;5.40;99.90;;;;;;5054716;28;20052;-72
2021/04/17 00:59:58;;;;;;;5.07;1.55;;;5.40;99.90;;;;;;5053382;28;20363;-73
2021/04/17 01:02:36;;;;;;;4.25;0.80;;;5.30;99.90;;;;;;5053330;28;20427;-73
2021/04/17 01:05:08;;;;;;;2.20;0.95;;;5.30;99.90;;;;;;5054018;28;20036;-73
2021/04/17 01:07:41;;;;;;;5.35;1.67;;;5.30;99.90;;;;;;5049684;28;20044;-73
2021/04/17 01:10:22;;;;;;;3.38;0.77;;;5.30;99.90;;;;;;5052801;28;20047;-73
2021/04/17 01:12:51;;;;;;;4.47;1.17;;;5.20;99.90;;;;;;5055963;28;20032;-73
2021/04/17 01:15:18;;;;;;;2.38;0.60;;;5.20;99.90;;;;;;5052232;28;20111;-73
2021/04/17 01:17:45;;;;;;;4.25;1.20;;;5.20;99.90;;;;;;5055200;28;20036;-72
2021/04/17 01:20:31;;;;;;;6.50;1.38;;;5.10;99.90;;;;;;5052848;28;20033;-73
2021/04/17 01:23:21;;;;;;;1.08;0.47;;;5.10;99.90;;;;;;5049353;28;20498;-73
2021/04/17 01:25:53;;;;;;;1.23;0.60;;;5.10;99.90;;;;;;5049657;28;20044;-73
2021/04/17 01:28:21;;;;;;;5.03;0.70;;;5.10;99.90;;;;;;5048583;28;20026;-73
2021/04/17 01:30:49;;;;;;;4.55;0.95;;;5.10;99.90;;;;;;5045816;28;20036;-73
2021/04/17 01:33:17;;;;;;;1.83;0.73;;;5.10;99.90;;;;;;5055901;28;20029;-73
2021/04/17 01:35:46;;;;;;;4.82;0.70;;;5.10;99.90;;;;;;5051090;28;20364;-73
2021/04/17 01:38:34;;;;;;;1.73;0.77;;;5.10;99.90;;;;;;5053759;28;20502;-73
2021/04/17 01:41:04;;;;;;;4.65;0.80;;;5.10;99.90;;;;;;5051769;28;20033;-75
2021/04/17 01:43:31;;;;;;;3.22;0.98;;;5.00;99.90;;;;;;5053308;28;20040;-74
2021/04/17 01:46:03;;;;;;;3.00;0.90;;;5.10;99.90;;;;;;5050346;28;20065;-74
2021/04/17 01:48:30;;;;;;;3.85;0.77;;;5.10;99.90;;;;;;5053320;28;20068;-74
2021/04/17 01:50:58;;;;;;;1.55;1.00;;;5.00;99.90;;;;;;5051588;28;20063;-74
2021/04/17 01:53:28;;;;;;;3.95;0.80;;;5.00;99.90;;;;;;5053191;28;20120;-72
2021/04/17 01:55:55;;;;;;;;;;;5.00;99.90;;;;;;5052727;28;20033;-72
2021/04/17 01:58:24;;;;;;;1.65;0.65;;;5.00;99.90;;;;;;5059209;28;19912;-71
2021/04/17 02:00:55;;;;;;;3.60;0.80;;;4.90;99.90;;;;;;5054848;28;20100;-74
2021/04/17 02:03:21;;;;;;;3.15;0.68;;;4.90;99.90;;;;;;5058551;28;20401;-72
2021/04/17 02:05:52;;;;;;;6.97;1.17;;;4.90;99.90;;;;;;5053138;28;20509;-75
2021/04/17 02:08:18;;;;;;;;;;;4.90;99.90;;;;;;5052831;28;20529;-72
2021/04/17 02:10:45;;;;;;;2.65;0.90;;;4.80;99.90;;;;;;5059613;28;20366;-72
2021/04/17 02:13:12;;;;;;;3.97;1.40;;;4.80;99.90;;;;;;5055987;28;20454;-73
2021/04/17 02:15:39;;;;;;;1.75;0.90;;;4.90;99.90;;;;;;5058634;28;20041;-73
2021/04/17 02:18:28;;;;;;;2.70;0.80;;;4.80;99.90;;;;;;5054290;28;20500;-73
2021/04/17 02:21:07;;;;;;;4.90;1.20;;;4.90;99.90;;;;;;5054065;28;20040;-73
2021/04/17 02:23:34;;;;;;;3.97;0.80;;;4.80;99.90;;;;;;5057482;28;20490;-72
2021/04/17 02:26:00;;;;;;;4.97;1.08;;;4.80;99.90;;;;;;5054896;28;20788;-72
2021/04/17 02:28:28;;;;;;;1.10;0.70;;;4.80;99.90;;;;;;5056595;28;20040;-73
2021/04/17 02:30:54;;;;;;;3.55;0.70;;;4.80;99.90;;;;;;5055411;28;20043;-72
2021/04/17 02:33:21;;;;;;;1.65;0.90;;;4.70;99.90;;;;;;5058656;28;20057;-73
2021/04/17 02:35:46;;;;;;;1.20;0.50;;;4.70;99.90;;;;;;5055301;28;20029;-72
2021/04/17 02:38:12;;;;;;;3.40;0.90;;;4.80;99.90;;;;;;5056681;28;20033;-73
2021/04/17 02:40:38;;;;;;;6.05;1.00;;;4.70;99.90;;;;;;5056132;28;20391;-72
2021/04/17 02:43:03;;;;;;;4.57;1.67;;;4.60;99.90;;;;;;5056070;28;20432;-73
2021/04/17 02:45:29;;;;;;;6.55;1.00;;;4.60;99.90;;;;;;5056306;28;20040;-73
2021/04/17 02:47:55;;;;;;;6.38;1.48;;;4.60;99.90;;;;;;5055007;28;20025;-72
2021/04/17 02:50:20;;;;;;;5.20;1.13;;;4.60;99.90;;;;;;5057989;28;20032;-73
2021/04/17 02:52:48;;;;;;;3.28;1.30;;;4.60;99.90;;;;;;5054092;28;20048;-73
2021/04/17 02:55:14;;;;;;;6.32;1.88;;;4.60;99.90;;;;;;5049590;28;20033;-73
2021/04/17 02:57:39;;;;;;;5.45;1.70;;;4.60;99.90;;;;;;5059456;28;20047;-72
2021/04/17 03:00:07;;;;;;;6.10;2.20;;;4.60;99.90;;;;;;5055304;28;20025;-73
2021/04/17 03:02:33;;;;;;;10.75;1.85;;;4.70;99.90;;;;;;5057375;28;20150;-73
2021/04/17 03:04:59;;;;;;;11.15;2.95;;;4.70;99.90;;;;;;5056430;28;20490;-73
2021/04/17 03:07:25;;;;;;;12.60;2.53;;;4.70;99.90;;;;;;5056914;28;20049;-73
2021/04/17 03:09:50;;;;;;;14.80;2.53;;;4.70;99.90;;;;;;5055946;28;20045;-73
2021/04/17 03:12:16;;;;;;;5.78;1.60;;;4.80;99.90;;;;;;5052059;28;20489;-72
2021/04/17 03:14:42;;;;;;;6.20;1.70;;;4.80;99.90;;;;;;5059087;28;20033;-73
2021/04/17 03:17:08;;;;;;;4.95;1.80;;;4.80;99.90;;;;;;5054569;28;20051;-72
2021/04/17 03:19:34;;;;;;;9.35;2.28;;;4.80;99.90;;;;;;5056647;28;20037;-73
2021/04/17 03:22:00;;;;;;;11.00;2.53;;;4.90;99.90;;;;;;5055592;28;20036;-73
2021/04/17 03:24:26;;;;;;;8.65;1.45;;;4.90;99.90;;;;;;5053820;28;20033;-72
2021/04/17 03:26:51;;;;;;;4.22;1.75;;;4.90;99.90;;;;;;5056989;28;20510;-73
2021/04/17 03:29:17;;;;;;;6.70;2.35;;;4.90;99.90;;;;;;5054835;28;20033;-72
2021/04/17 03:31:44;;;;;;;8.35;2.53;;;4.90;99.90;;;;;;5057840;28;20037;-73
2021/04/17 03:34:10;;;;;;;8.93;2.97;;;4.90;99.90;;;;;;5053142;28;20029;-72
2021/04/17 03:36:36;;;;;;;16.50;2.67;;;5.00;99.90;;;;;;5056503;28;20044;-72
2021/04/17 03:39:02;;;;;;;6.05;2.25;;;4.90;99.90;;;;;;5054177;28;20075;-73
2021/04/17 03:41:27;;;;;;;5.60;2.50;;;5.00;99.90;;;;;;5055106;28;20491;-73
2021/04/17 03:43:53;;;;;;;11.38;2.85;;;5.00;99.90;;;;;;5056311;28;20037;-73
2021/04/17 03:46:18;;;;;;;7.78;2.40;;;5.00;99.90;;;;;;5056253;28;20528;-73
2021/04/17 03:48:44;;;;;;;11.48;2.50;;;5.00;99.90;;;;;;5050116;28;20082;-73
2021/04/17 03:51:10;;;;;;;7.82;2.97;;;5.00;99.90;;;;;;5057543;28;20044;-73
2021/04/17 03:53:35;;;;;;;7.85;3.00;;;5.00;99.90;;;;;;5053092;28;20025;-72
2021/04/17 03:56:01;;;;;;;8.05;3.05;;;5.00;99.90;;;;;;5055021;28;20112;-73
2021/04/17 03:58:26;;;;;;;7.50;3.13;;;5.00;99.90;;;;;;5052027;28;20486;-73
2021/04/17 04:00:52;;;;;;;7.50;2.80;;;5.00;99.90;;;;;;5055657;28;20033;-73
2021/04/17 04:03:17;;;;;;;16.42;3.47;;;5.00;99.90;;;;;;5056828;28;20108;-73
2021/04/17 04:05:43;;;;;;;9.95;2.63;;;4.90;99.90;;;;;;5052174;28;20123;-73
2021/04/17 04:08:09;;;;;;;6.07;3.08;;;5.00;99.90;;;;;;5056116;28;20383;-72
2021/04/17 04:10:34;;;;;;;10.98;3.28;;;5.00;99.90;;;;;;5054868;28;20371;-73
2021/04/17 04:13:00;;;;;;;15.32;3.20;;;5.10;99.90;;;;;;5055012;28;20036;-73
2021/04/17 04:15:25;;;;;;;14.00;3.70;;;5.00;99.90;;;;;;5054812;28;20036;-72
2021/04/17 04:17:51;;;;;;;10.52;3.67;;;5.00;99.90;;;;;;5054661;28;20033;-73
2021/04/17 04:20:16;;;;;;;8.38;3.35;;;5.00;99.90;;;;;;5052802;28;20032;-73
2021/04/17 04:22:42;;;;;;;10.35;2.72;;;5.00;99.90;;;;;;5051508;28;20044;-73
2021/04/17 04:25:09;;;;;;;9.63;3.50;;;5.00;99.90;;;;;;5056808;28;20094;-73
2021/04/17 04:27:36;;;;;;;7.28;3.22;;;4.90;99.90;;;;;;5052809;28;20044;-73
2021/04/17 04:30:04;;;;;;;10.05;3.30;;;4.90;99.90;;;;;;5057197;28;20128;-72
2021/04/17 04:32:30;;;;;;;13.95;3.88;;;4.90;99.90;;;;;;5052808;28;20036;-72
2021/04/17 04:34:55;;;;;;;8.07;3.75;;;4.90;99.90;;;;;;5051871;28;20052;-73
2021/04/17 04:37:21;;;;;;;7.97;2.95;;;4.80;99.90;;;;;;5054575;28;20056;-72
2021/04/17 04:39:46;;;;;;;7.85;3.85;;;4.70;99.90;;;;;;5052451;28;20312;-73
2021/04/17 04:42:12;;;;;;;8.55;2.85;;;4.60;99.90;;;;;;5056215;28;20032;-73
2021/04/17 04:44:38;;;;;;;12.50;3.00;;;4.60;99.90;;;;;;5053257;28;20600;-73
2021/04/17 04:47:04;;;;;;;9.15;3.60;;;4.50;99.90;;;;;;5054472;28;20052;-73
2021/04/17 04:49:29;;;;;;;5.90;2.60;;;4.40;99.90;;;;;;5052545;28;20033;-73
2021/04/17 04:51:55;;;;;;;13.07;4.32;;;4.40;99.90;;;;;;5053441;28;20136;-73
2021/04/17 04:54:21;;;;;;;10.52;3.10;;;4.30;99.90;;;;;;5054111;28;20079;-72
2021/04/17 04:56:46;;;;;;;8.00;3.67;;;4.30;99.90;;;;;;5051813;28;20128;-73
2021/04/17 04:59:12;;;;;;;7.65;2.67;;;4.30;99.90;;;;;;5055875;28;20421;-73
2021/04/17 05:01:37;;;;;;;16.40;3.85;;;4.30;99.90;;;;;;5052271;28;20091;-72
2021/04/17 05:04:03;;;;;;;12.02;4.35;;;4.20;99.90;;;;;;5056468;28;20515;-73
2021/04/17 05:06:29;;;;;;;9.88;3.47;;;4.10;99.90;;;;;;5054806;28;20050;-73
2021/04/17 05:08:54;;;;;;;7.30;3.20;;;4.20;99.90;;;;;;5052455;28;20060;-74
2021/04/17 05:11:20;;;;;;;7.95;3.53;;;4.20;99.90;;;;;;5053174;28;20123;-72
2021/04/17 05:13:45;;;;;;;14.48;4.05;;;4.10;99.90;;;;;;5052587;28;20032;-73
2021/04/17 05:16:13;;;;;;;8.98;3.15;;;4.20;99.90;;;;;;5051592;28;20036;-73
2021/04/17 05:18:38;;;;;;;10.02;3.85;;;4.20;99.90;;;;;;5056965;28;20029;-72
2021/04/17 05:21:04;;;;;;;9.05;3.60;;;4.30;99.90;;;;;;5052073;28;20494;-72
2021/04/17 05:23:30;;;;;;;12.77;3.60;;;4.30;99.90;;;;;;5051983;28;20138;-72
2021/04/17 05:25:56;;;;;;;7.32;3.13;;;4.40;99.90;;;;;;5052527;28;20130;-72
2021/04/17 05:28:21;;;;;;;8.52;3.15;;;4.40;99.90;;;;;;5053865;28;20032;-72
2021/04/17 05:30:47;;;;;;;10.77;3.30;;;4.50;99.90;;;;;;5054671;28;20051;-72
2021/04/17 05:33:12;;;;;;;8.18;3.05;;;4.50;99.90;;;;;;5053907;28;20029;-72
2021/04/17 05:35:38;;;;;;;10.52;3.20;;;4.60;99.90;;;;;;5052467;28;20112;-72
2021/04/17 05:38:04;;;;;;;8.77;3.20;;;4.70;99.90;;;;;;5054275;28;20025;-72
2021/04/17 05:40:29;;;;;;;12.98;3.30;;;4.70;99.90;;;;;;5052904;28;20178;-72
2021/04/17 05:42:55;;;;;;;9.10;3.50;;;4.70;99.90;;;;;;5054093;28;20040;-73
2021/04/17 05:45:20;;;;;;;6.80;2.90;;;4.80;99.90;;;;;;5053122;28;20117;-72
2021/04/17 05:47:46;;;;;;;9.73;3.10;;;5.00;99.90;;;;;;5053612;28;20048;-72
2021/04/17 05:50:12;;;;;;;6.85;3.05;;;5.30;99.90;;;;;;5050691;28;20521;-73
2021/04/17 05:52:37;;;;;;;9.57;2.13;;;6.40;99.90;;;;;;5052443;28;20064;-72
2021/04/17 05:55:04;;;;;;;5.28;1.73;;;7.70;99.90;;;;;;5055385;28;20036;-72
2021/04/17 05:57:31;;;;;;;5.68;1.38;;;9.00;99.90;;;;;;5050752;28;20386;-72
2021/04/17 05:59:56;;;;;;;5.07;1.60;;;10.10;99.90;;;;;;5054849;28;20036;-72
2021/04/17 06:02:23;;;;;;;3.50;1.33;;;11.20;99.90;;;;;;5049677;28;20147;-73
2021/04/17 06:04:49;;;;;;;6.85;1.63;;;11.90;99.90;;;;;;5053476;28;20033;-73
2021/04/17 06:07:15;;;;;;;5.63;1.92;;;12.80;99.90;;;;;;5051278;28;20037;-72
2021/04/17 06:09:40;;;;;;;5.40;1.48;;;13.50;99.90;;;;;;5047714;28;20029;-74
2021/04/17 06:12:06;;;;;;;5.43;1.50;;;14.00;98.40;;;;;;5054930;28;20453;-73
2021/04/17 06:14:32;;;;;;;4.97;1.60;;;14.40;95.10;;;;;;5051458;28;20049;-72
2021/04/17 06:16:57;;;;;;;5.72;1.58;;;14.80;92.90;;;;;;5054443;28;20032;-73
2021/04/17 06:19:23;;;;;;;4.95;1.10;;;15.00;89.80;;;;;;5051016;28;20036;-73
2021/04/17 06:21:48;;;;;;;8.50;1.77;;;15.30;88.60;;;;;;5053291;28;20033;-73
2021/04/17 06:24:14;;;;;;;3.55;1.08;;;15.40;86.50;;;;;;5053275;28;20665;-74
2021/04/17 06:26:40;;;;;;;5.13;1.35;;;15.50;83.80;;;;;;5050764;28;20525;-73
2021/04/17 06:29:05;;;;;;;4.65;1.67;;;15.70;81.10;;;;;;5054179;28;20466;-73
2021/04/17 06:31:31;;;;;;;4.88;1.52;;;15.90;81.20;;;;;;5051351;28;20083;-73
2021/04/17 06:33:57;;;;;;;2.20;1.00;;;15.90;81.20;;;;;;5056196;28;20040;-71
2021/04/17 06:36:22;;;;;;;3.80;1.20;;;15.80;81.60;;;;;;5050398;28;20487;-73
2021/04/17 06:38:48;;;;;;;3.53;1.00;;;16.30;76.70;;;;;;5052096;28;20037;-73
2021/04/17 06:41:14;;;;;;;4.45;1.25;;;16.60;75.20;;;;;;5053248;28;20428;-73
2021/04/17 06:43:43;;;;;;;3.88;1.10;;;16.30;76.10;;;;;;5053201;28;20044;-72
2021/04/17 06:46:12;;;;;;;3.35;1.00;;;16.40;75.50;;;;;;5056130;28;20392;-75
2021/04/17 06:48:41;;;;;;;6.97;1.40;;;16.80;74.50;;;;;;5053843;28;20036;-75
2021/04/17 06:51:15;;;;;;;3.90;0.70;;;17.10;72.00;;;;;;5057906;28;20470;-72
2021/04/17 06:53:42;;;;;;;4.15;0.88;;;16.90;71.60;;;;;;5054435;28;20449;-72
2021/04/17 06:56:08;;;;;;;4.70;0.90;;;16.70;70.20;;;;;;5056361;28;20119;-73
2021/04/17 06:58:35;;;;;;;3.78;0.85;;;16.10;71.30;;;;;;5052612;28;20566;-74
2021/04/17 07:01:00;;;;;;;5.18;1.13;;;16.10;72.60;;;;;;5058673;28;20024;-74
2021/04/17 07:03:26;;;;;;;1.85;0.88;;;16.50;74.10;;;;;;5052405;28;20126;-73
2021/04/17 07:05:52;;;;;;;9.73;1.25;;;16.70;71.60;;;;;;5057402;28;20036;-72
2021/04/17 07:08:17;;;;;;;3.90;1.15;;;16.60;69.30;;;;;;5053815;28;20044;-72
2021/04/17 07:10:43;;;;;;;3.05;1.00;;;16.30;70.80;;;;;;5054198;28;20483;-74
2021/04/17 07:13:14;;;;;;;6.00;1.25;;;15.80;72.20;;;;;;5050297;28;20048;-72
2021/04/17 07:15:41;;;;;;;4.32;1.25;;;15.50;74.10;;;;;;5048642;28;20536;-73
2021/04/17 07:18:27;;;;;;;2.92;0.80;;;14.80;77.70;;;;;;5046296;28;20566;-73
2021/04/17 07:20:54;;;;;;;6.15;1.00;;;14.60;80.60;;;;;;5048009;28;20550;-73
2021/04/17 07:23:31;;;;;;;3.58;0.80;;;14.10;82.20;;;;;;5047319;28;20128;-73
2021/04/17 07:26:09;;;;;;;3.05;0.70;;;13.60;87.40;;;;;;5046721;28;20043;-73
2021/04/17 07:28:36;;;;;;;2.35;0.90;;;13.50;89.60;;;;;;5052829;28;20085;-74
2021/04/17 07:31:02;;;;;;;7.55;1.08;;;13.20;90.70;;;;;;5054402;28;20059;-73
2021/04/17 07:33:29;;;;;;;7.93;0.88;;;12.80;92.30;;;;;;5053935;28;20123;-74
2021/04/17 07:35:55;;;;;;;4.65;1.40;;;12.50;94.70;;;;;;5054221;28;20029;-74
2021/04/17 07:38:23;;;;;;;2.58;0.93;;;12.30;96.90;;;;;;5055399;28;20148;-73
2021/04/17 07:41:09;;;;;;;4.80;0.90;;;12.00;98.00;;;;;;5053450;28;20033;-73
2021/04/17 07:43:55;;;;;;;4.80;0.90;;;11.80;99.70;;;;;;5042224;28;20041;-74
2021/04/17 07:46:23;;;;;;;6.40;1.05;;;11.40;99.90;;;;;;5051334;28;20518;-72
2021/04/17 07:48:49;;;;;;;2.95;1.02;;;11.20;99.90;;;;;;5055627;28;20498;-73
2021/04/17 07:51:15;;;;;;;4.32;0.98;;;11.20;99.90;;;;;;5054667;28;20040;-72
2021/04/17 07:53:42;;;;;;;5.07;1.20;;;11.10;99.90;;;;;;5055411;28;20094;-72
2021/04/17 07:56:29;;;;;;;6.43;1.20;;;11.00;99.90;;;;;;5050460;28;20040;-72
2021/04/17 07:58:59;;;;;;;5.20;1.10;;;11.00;99.90;;;;;;5044719;28;20369;-71
2021/04/17 08:01:27;;;;;;;3.78;0.93;;;11.10;99.90;;;;;;5043688;28;20051;-72
2021/04/17 08:03:55;;;;;;;5.13;1.30;;;11.20;99.90;;;;;;5050814;28;20183;-73
2021/04/17 08:06:22;;;;;;;4.82;0.65;;;11.20;99.90;;;;;;5052954;28;20921;-72
2021/04/17 08:08:50;;;;;;;4.72;0.70;;;11.20;99.90;;;;;;5052043;28;20032;-72
2021/04/17 08:11:20;;;;;;;2.53;0.82;;;11.00;99.90;;;;;;5047747;28;20423;-72
2021/04/17 08:13:46;;;;;;;6.18;0.57;;;10.90;99.90;;;;;;5041520;28;20569;-71
2021/04/17 08:16:12;;;;;;;3.33;0.68;;;10.90;99.90;;;;;;5045892;28;20047;-72
2021/04/17 08:18:39;;;;;;;3.42;0.60;;;11.10;99.90;;;;;;5050992;28;20033;-72
2021/04/17 08:21:10;;;;;;;4.60;0.88;;;11.30;99.90;;;;;;5054660;28;20520;-71
2021/04/17 08:23:37;;;;;;;4.35;0.47;;;11.30;99.90;;;;;;5055145;28;20044;-71
2021/04/17 08:26:05;;;;;;;1.48;0.73;;;11.30;99.90;;;;;;5052583;28;20449;-70
2021/04/17 08:28:40;;;;;;;4.32;0.77;;;11.10;99.50;;;;;;5051496;28;20093;-70
2021/04/17 08:31:30;;;;;;;5.78;0.57;;;11.00;98.40;;;;;;5051912;28;20032;-70
2021/04/17 08:34:19;;;;;;;1.35;0.50;;;11.00;98.00;;;;;;5046018;28;20033;-70
2021/04/17 08:36:47;;;;;;;1.83;0.70;;;11.00;98.40;;;;;;5051956;28;20110;-71
2021/04/17 08:39:40;;;;;;;3.25;0.77;;;11.10;99.10;;;;;;5053647;28;20394;-70
2021/04/17 08:42:11;;;;;;;1.30;0.68;;;11.20;99.90;;;;;;5049975;28;20438;-71
2021/04/17 08:44:41;;;;;;;3.60;0.50;;;11.30;98.70;;;;;;5056307;28;20112;-71
2021/04/17 08:47:10;;;;;;;3.08;0.80;;;11.20;97.30;;;;;;5052020;28;20041;-70
2021/04/17 08:49:38;;;;;;;2.40;0.43;;;11.20;97.70;;;;;;5054442;28;20086;-70
2021/04/17 08:52:09;;;;;;;2.53;0.40;;;11.30;96.70;;;;;;5052120;28;20097;-70
2021/04/17 08:54:37;;;;;;;6.60;0.50;;;11.30;94.90;;;;;;5051624;28;20044;-70
2021/04/17 08:57:17;;;;;;;4.68;0.65;;;11.30;96.60;;;;;;5053261;28;20486;-70
2021/04/17 08:59:52;;;;;;;5.43;0.57;;;11.50;96.70;;;;;;5052554;28;20036;-70
2021/04/17 09:02:19;;;;;;;2.15;0.30;;;11.70;95.70;;;;;;5052215;28;20314;-70
2021/04/17 09:05:03;;;;;;;5.03;0.60;;;11.70;93.80;;;;;;5055063;28;20041;-70
2021/04/17 09:07:31;;;;;;;2.65;0.98;;;11.80;95.00;;;;;;5048969;28;20061;-71
2021/04/17 09:10:22;;;;;;;4.78;0.65;;;11.80;95.70;;;;;;5053791;28;20036;-72
2021/04/17 09:13:07;;;;;;;3.70;1.05;;;11.90;94.90;;;;;;5051582;28;20036;-70
2021/04/17 09:15:55;;;;;;;5.30;0.93;;;11.90;93.70;;;;;;5050025;28;20029;-70
2021/04/17 09:18:36;;;;;;;4.85;0.63;;;11.90;93.20;;;;;;5043960;28;20121;-70
2021/04/17 09:21:22;;;;;;;3.67;0.52;;;11.70;93.30;;;;;;5043301;28;20086;-69
2021/04/17 09:23:52;;;;;;;2.70;0.77;;;11.80;95.00;;;;;;5046623;28;20032;-71
2021/04/17 09:26:30;;;;;;;2.00;0.70;;;11.80;94.50;;;;;;5049532;28;20411;-72
2021/04/17 09:29:01;;;;;;;2.83;0.50;;;11.70;93.90;;;;;;5046528;28;20216;-70
2021/04/17 09:31:27;;;;;;;4.30;0.95;;;11.80;93.90;;;;;;5051184;28;20330;-70
2021/04/17 09:34:00;;;;;;;6.00;1.13;;;11.80;93.30;;;;;;5048250;28;20037;-70
2021/04/17 09:36:26;;;;;;;3.72;0.60;;;11.70;94.30;;;;;;5048662;28;20051;-71
2021/04/17 09:38:51;;;;;;;3.55;0.45;;;11.70;94.10;;;;;;5047527;28;20469;-70
2021/04/17 09:41:17;;;;;;;3.63;1.05;;;11.80;93.20;;;;;;5047244;28;20107;-71
2021/04/17 09:43:43;;;;;;;3.35;0.55;;;11.90;92.60;;;;;;5048587;28;20510;-70
2021/04/17 09:46:19;;;;;;;6.30;0.70;;;11.80;91.30;;;;;;5046637;28;20060;-70
2021/04/17 09:48:46;;;;;;;2.95;0.70;;;12.00;92.20;;;;;;5047246;28;20098;-71
2021/04/17 09:51:38;;;;;;;4.45;0.70;;;12.00;90.90;;;;;;5043234;28;20041;-70
2021/04/17 09:54:06;;;;;;;3.88;0.63;;;12.00;90.30;;;;;;5039879;28;20368;-70
2021/04/17 09:56:41;;;;;;;3.55;0.70;;;12.00;90.10;;;;;;5049645;28;20123;-71
2021/04/17 09:59:13;;;;;;;5.93;0.82;;;12.20;90.50;;;;;;5036926;28;20405;-71
2021/04/17 10:01:55;;;;;;;5.57;0.80;;;12.30;91.50;;;;;;5044043;28;20136;-71
2021/04/17 10:04:21;;;;;;;1.63;0.40;;;12.40;88.50;;;;;;5039346;28;20057;-71
2021/04/17 10:06:57;;;;;;;2.10;0.70;;;12.60;83.60;;;;;;5046550;28;20048;-71
2021/04/17 10:09:23;;;;;;;3.47;0.88;;;12.50;80.50;;;;;;5039437;28;20037;-70
2021/04/17 10:11:49;;;;;;;1.40;0.60;;;12.40;80.80;;;;;;5053661;28;20492;-74
2021/04/17 10:14:17;;;;;;;2.45;0.85;;;12.20;78.90;;;;;;5046905;28;20037;-71
2021/04/17 10:16:45;;;;;;;3.35;0.52;;;12.30;82.70;;;;;;5052719;28;20033;-71
2021/04/17 10:19:16;;;;;;;2.95;0.30;;;12.30;79.20;;;;;;5053309;28;20033;-72
2021/04/17 10:21:42;;;;;;;;;;;12.40;81.60;;;;;;5056435;28;20198;-71
2021/04/17 10:24:15;;;;;;;4.07;0.45;;;12.40;77.30;;;;;;5057156;28;19916;-71
2021/04/17 10:26:48;;;;;;;4.60;0.80;;;12.10;77.60;;;;;;5054208;28;20239;-70
2021/04/17 10:29:14;;;;;;;8.23;0.65;;;12.00;80.50;;;;;;5048780;28;20141;-71
2021/04/17 10:31:39;;;;;;;4.90;0.93;;;12.10;79.10;;;;;;5046814;28;20071;-71
2021/04/17 10:34:05;;;;;;;2.50;0.57;;;12.10;79.20;;;;;;5047630;28;20041;-72
2021/04/17 10:36:30;;;;;;;2.95;0.73;;;12.10;78.80;;;;;;5045506;28;20108;-72
2021/04/17 10:39:05;;;;;;;7.75;0.77;;;12.20;77.50;;;;;;5050302;28;20037;-71
2021/04/17 10:41:32;;;;;;;2.03;0.45;;;12.20;74.10;;;;;;5047739;28;20311;-72
2021/04/17 10:44:14;;;;;;;6.57;0.80;;;12.10;72.60;;;;;;5048756;28;20552;-72
2021/04/17 10:46:42;;;;;;;2.40;0.60;;;12.10;72.30;;;;;;5048703;28;20106;-72
2021/04/17 10:49:08;;;;;;;1.88;0.68;;;12.20;73.00;;;;;;5050473;28;20495;-72
2021/04/17 10:51:36;;;;;;;3.55;0.77;;;12.10;71.30;;;;;;5045416;28;20037;-70
2021/04/17 10:54:02;;;;;;;6.22;1.27;;;12.30;72.40;;;;;;5046747;28;20029;-71
2021/04/17 10:56:28;;;;;;;6.60;0.63;;;12.40;72.80;;;;;;5048059;28;20170;-70
2021/04/17 10:59:12;;;;;;;3.70;0.88;;;12.50;70.60;;;;;;5043533;28;20791;-74
2021/04/17 11:01:38;;;;;;;5.43;0.93;;;12.50;69.70;;;;;;5052213;28;20127;-71
2021/04/17 11:04:04;;;;;;;4.40;0.95;;;12.50;67.80;;;;;;5053448;28;20131;-72
2021/04/17 11:06:35;;;;;;;2.47;0.63;;;12.50;67.00;;;;;;5045870;28;20044;-73
2021/04/17 11:09:07;;;;;;;7.75;0.93;;;12.30;66.10;;;;;;5048313;28;20570;-72
2021/04/17 11:11:33;;;;;;;1.55;0.40;;;12.30;68.10;;;;;;5053159;28;20029;-72
2021/04/17 11:14:01;;;;;;;2.80;0.57;;;12.30;67.60;;;;;;5052206;28;20410;-72
2021/04/17 11:16:50;;;;;;;4.95;1.20;;;12.20;67.80;;;;;;5055582;28;20501;-71
2021/04/17 11:19:22;;;;;;;3.53;0.90;;;12.10;68.30;;;;;;5047212;28;20072;-73
2021/04/17 11:22:14;;;;;;;2.90;0.77;;;11.90;69.40;;;;;;5056003;28;20047;-72
2021/04/17 11:24:58;;;;;;;3.28;0.65;;;12.10;73.10;;;;;;5054200;28;20048;-72
2021/04/17 11:27:25;;;;;;;3.55;0.55;;;12.00;66.70;;;;;;5053689;28;20223;-72
2021/04/17 11:29:51;;;;;;;3.97;1.38;;;12.00;68.50;;;;;;5051942;28;20476;-72
2021/04/17 11:32:16;;;;;;;3.90;0.65;;;12.10;68.60;;;;;;5056186;28;20143;-71
2021/04/17 11:34:46;;;;;;;8.23;2.03;;;12.10;70.60;;;;;;5052962;28;20095;-72
2021/04/17 11:37:13;;;;;;;5.43;0.88;;;12.10;67.10;;;;;;5053079;28;20126;-74
2021/04/17 11:39:38;;;;;;;5.43;0.85;;;12.10;67.60;;;;;;5054079;28;20082;-84
2021/04/17 11:42:04;;;;;;;5.22;0.95;;;12.00;68.30;;;;;;5054336;28;20124;-73
2021/04/17 11:44:30;;;;;;;5.38;0.77;;;12.10;67.70;;;;;;5056290;28;20051;-71
2021/04/17 11:46:59;;;;;;;2.95;0.60;;;12.00;67.10;;;;;;5049014;28;20040;-72
2021/04/17 11:49:24;;;;;;;1.45;0.60;;;12.00;69.30;;;;;;5050426;28;20029;-72
2021/04/17 11:51:50;;;;;;;3.83;0.73;;;12.00;68.70;;;;;;5053962;28;20048;-72
2021/04/17 11:54:16;;;;;;;2.13;0.65;;;12.10;69.20;;;;;;5052066;28;20047;-72
2021/04/17 11:56:41;;;;;;;2.58;0.57;;;12.10;66.00;;;;;;5046600;28;20051;-72
2021/04/17 11:59:07;;;;;;;2.63;0.70;;;12.10;65.20;;;;;;5054880;28;20304;-73
2021/04/17 12:01:33;;;;;;;4.05;0.90;;;12.00;64.10;;;;;;5049913;28;20186;-72
2021/04/17 12:03:59;;;;;;;1.98;0.70;;;12.00;65.60;;;;;;5053700;28;20130;-72
2021/04/17 12:06:28;;;;;;;5.38;1.70;;;12.00;64.60;;;;;;5053358;28;20067;-72
2021/04/17 12:08:57;;;;;;;4.70;0.65;;;12.00;65.30;;;;;;5049356;28;20424;-72
2021/04/17 12:11:23;;;;;;;4.82;0.70;;;11.90;65.70;;;;;;5053142;28;20514;-72
2021/04/17 12:13:49;;;;;;;2.45;0.63;;;11.90;65.30;;;;;;5050836;28;20048;-72
2021/04/17 12:16:15;;;;;;;2.00;0.63;;;11.90;66.30;;;;;;5055904;28;20307;-72
2021/04/17 12:18:41;;;;;;;1.42;0.50;;;12.00;65.30;;;;;;5053308;28;20025;-72
2021/04/17 12:21:07;;;;;;;2.22;0.40;;;12.00;65.30;;;;;;5055097;28;20517;-72
2021/04/17 12:23:32;;;;;;;1.58;0.80;;;12.00;65.90;;;;;;5054418;28;20530;-72
2021/04/17 12:25:58;;;;;;;3.03;0.50;;;12.00;64.70;;;;;;5053978;28;20117;-73
2021/04/17 12:28:24;;;;;;;1.63;0.50;;;12.00;65.10;;;;;;5054727;28;20559;-73
2021/04/17 12:30:55;;;;;;;5.47;0.50;;;12.10;65.80;;;;;;5051789;28;20417;-72
2021/04/17 12:33:21;;;;;;;3.55;1.00;;;12.10;66.10;;;;;;5052850;28;20468;-73
2021/04/17 12:35:48;;;;;;;6.18;0.80;;;12.20;63.10;;;;;;5048191;28;20078;-73
2021/04/17 12:38:14;;;;;;;7.30;0.63;;;12.10;62.70;;;;;;5050903;28;20518;-73
2021/04/17 12:40:40;;;;;;;2.17;0.47;;;12.20;63.40;;;;;;5046923;28;20075;-73
2021/04/17 12:43:07;;;;;;;3.20;0.52;;;12.20;62.50;;;;;;5052872;28;20021;-72
2021/04/17 12:45:34;;;;;;;4.72;0.52;;;12.00;62.90;;;;;;5053902;28;20506;-73
2021/04/17 12:47:59;;;;;;;2.08;0.65;;;12.00;64.20;;;;;;5054841;28;20037;-72
2021/04/17 12:50:26;;;;;;;1.60;0.57;;;12.20;64.10;;;;;;5050160;28;20105;-72
2021/04/17 12:52:51;;;;;;;2.55;0.50;;;12.10;63.80;;;;;;5051981;28;20060;-72
2021/04/17 12:55:17;;;;;;;2.97;0.68;;;12.10;63.50;;;;;;5054850;28;20036;-73
2021/04/17 12:57:43;;;;;;;2.33;0.80;;;12.10;63.80;;;;;;5057694;28;20028;-72